• Join FlightAware (Why Join?)
  • Login
  • US Flag 
12:53PM EST


 

Airport Tracker/Info


-or-


 

Live Flight TrackerFlight Track Log ✈ CTL309 ✈ 13-Jun-2013 ✈ KOSU - KHAO

Flight Track Log - Related Links

Times and Time Zones

All times are in EDT time to prevent confusion due to time zone crossing. See the CTL309 flight status page for this flight to view local times or setup timezone preferences in your user account.

Time Position Orientation Groundspeed Altitude Reporting Facility
EDT Latitude Longitude Course Direction KTS MPH feet Rate Location/Type
05:50AM 40.0761 -83.0903 264° West 121 139 1,100  Level Indianapolis Center
05:50AM 40.0739 -83.1200 264° West 136 157 1,500 600 Climbing Indianapolis Center
05:51AM 40.0544 -83.1611 238° Southwest 137 158 2,100 600 Climbing Indianapolis Center
05:52AM 40.0486 -83.1731 237° Southwest 134 154 2,400 840 Climbing Indianapolis Center
05:52AM 40.0325 -83.2050 237° Southwest 124 143 3,100 900 Climbing Indianapolis Center
05:53AM 40.0294 -83.2106 234° Southwest 130 150 3,300 480 Climbing Indianapolis Center
05:53AM 40.0153 -83.2436 241° Southwest 122 140 3,600 480 Climbing Indianapolis Center
05:54AM 40.0131 -83.2511 249° West 125 144 3,800 300 Climbing Indianapolis Center
05:54AM 40.0000 -83.2800 239° Southwest 129 148 3,900 180 Climbing Indianapolis Center
05:55AM 39.9944 -83.2917 238° Southwest 127 146 4,000  Climbing Indianapolis Center
05:55AM 39.9803 -83.3214 238° Southwest 134 154 3,900 -120 Descending Indianapolis Center
05:56AM 39.9750 -83.3325 238° Southwest 130 150 3,900  Level Indianapolis Center
05:56AM 39.9608 -83.3597 236° Southwest 135 155 3,900 180 Level Indianapolis Center
05:57AM 39.9544 -83.3733 239° Southwest 132 152 4,100  Climbing Indianapolis Center
05:57AM 39.9392 -83.3981 231° Southwest 134 154 3,900 -240 Descending Indianapolis Center
05:58AM 39.9331 -83.4136 243° Southwest 133 153 3,900  Level Indianapolis Center
05:58AM 39.9175 -83.4389 231° Southwest 137 158 3,900  Level Indianapolis Center
05:59AM 39.9069 -83.4603 237° Southwest 135 155 3,900  Level Indianapolis Center
05:59AM 39.8975 -83.4825 241° Southwest 131 151 3,900  Level Indianapolis Center
06:00AM 39.8878 -83.4994 233° Southwest 132 152 3,900  Level Indianapolis Center
06:00AM 39.8758 -83.5233 237° Southwest 133 153 3,900  Level Indianapolis Center
06:01AM 39.8675 -83.5386 235° Southwest 131 151 3,900 60 Level Indianapolis Center
06:01AM 39.8539 -83.5642 235° Southwest 135 155 4,000  Climbing Indianapolis Center
06:02AM 39.8475 -83.5797 242° Southwest 133 153 3,900  Descending Indianapolis Center
06:02AM 39.8364 -83.6028 238° Southwest 134 154 4,000  Climbing Indianapolis Center
06:03AM 39.8272 -83.6211 237° Southwest 134 154 3,900  Descending Indianapolis Center
06:03AM 39.8144 -83.6464 237° Southwest 135 155 4,000 -120 Climbing Indianapolis Center
06:04AM 39.8069 -83.6614 237° Southwest 134 154 3,800  Descending Indianapolis Center
06:05AM 39.7922 -83.6897 236° Southwest 129 148 4,000 60 Climbing Indianapolis Center
06:05AM 39.7878 -83.7019 245° Southwest 132 152 3,900 60 Descending Indianapolis Center
06:06AM 39.7747 -83.7283 237° Southwest 123 142 4,100  Climbing Indianapolis Center
06:06AM 39.7694 -83.7406 241° Southwest 128 147 3,900 -120 Descending Indianapolis Center
06:06AM 39.7572 -83.7667 239° Southwest 130 150 4,000  Climbing Indianapolis Center
06:07AM 39.7492 -83.7797 231° Southwest 128 147 3,900 -120 Descending Indianapolis Center
06:07AM 39.7353 -83.8075 237° Southwest 139 160 3,900 -120 Level Indianapolis Center
06:08AM 39.7269 -83.8200 229° Southwest 131 151 3,800  Descending Indianapolis Center
06:08AM 39.7158 -83.8428 238° Southwest 131 151 3,900 60 Climbing Indianapolis Center
06:09AM 39.7061 -83.8614 236° Southwest 134 154 3,900 60 Level Indianapolis Center
06:09AM 39.6961 -83.8839 240° Southwest 135 155 4,000  Climbing Indianapolis Center
06:10AM 39.6850 -83.9022 232° Southwest 135 155 3,900 -120 Descending Indianapolis Center
06:10AM 39.6717 -83.9294 238° Southwest 134 154 3,900  Level Indianapolis Center
06:11AM 39.6642 -83.9428 234° Southwest 135 155 3,900 60 Level Indianapolis Center
06:11AM 39.6519 -83.9675 237° Southwest 136 157 4,000  Climbing Indianapolis Center
06:12AM 39.6436 -83.9836 236° Southwest 134 154 3,900 -180 Descending Indianapolis Center
06:13AM 39.6228 -84.0258 237° Southwest 136 157 3,800 -300 Descending Indianapolis Center
06:14AM 39.5992 -84.0694 235° Southwest 144 166 3,400 -420 Descending Indianapolis Center
06:15AM 39.5744 -84.1156 235° Southwest 150 173 3,000 -240 Descending Indianapolis Center
06:16AM 39.5517 -84.1600 236° Southwest 150 173 3,000 -60 Level Indianapolis Center
06:17AM 39.5308 -84.2028 238° Southwest 144 166 2,900 -60 Descending Indianapolis Center
06:18AM 39.5097 -84.2458 238° Southwest 141 162 2,900  Level Indianapolis Center
06:19AM 39.4892 -84.2897 239° Southwest 141 162 3,000  Climbing Indianapolis Center
06:20AM 39.4733 -84.3350 246° West 138 159 3,000 -120 Level Indianapolis Center
06:21AM 39.4711 -84.3831 267° West 133 153 2,800 -60 Descending Indianapolis Center
06:22AM 39.4658 -84.4269 261° West 128 147 2,900  Climbing Indianapolis Center
06:23AM 39.4583 -84.4719 258° West 127 146 2,900 -240 Level Indianapolis Center
06:24AM 39.4506 -84.5150 257° West 127 146 2,500 -540 Descending Indianapolis Center
06:26AM 39.3667 -84.5333 190° South 128 147 1,300 -360 Descending Cincinnati TRACON
06:27AM 39.3667 -84.5333 218° Southwest 138 159 1,400 60 Climbing Cincinnati TRACON